createdAt,value
2019-03-27T00:00:59.399Z,98896.64
2019-03-27T00:03:30.398Z,98896.70
2019-03-27T00:06:01.573Z,98895.22
2019-03-27T00:08:32.261Z,98895.22
2019-03-27T00:11:02.787Z,98899.88
2019-03-27T00:13:33.830Z,98888.46
2019-03-27T00:16:04.356Z,98884.43
2019-03-27T00:18:35.116Z,98884.36
2019-03-27T00:21:05.870Z,98884.36
2019-03-27T00:23:36.451Z,98887.09
2019-03-27T00:26:07.480Z,98887.42
2019-03-27T00:28:38.055Z,98889.45
2019-03-27T00:31:11.640Z,98889.45
2019-03-27T00:33:40.804Z,98887.72
2019-03-27T00:36:11.092Z,98886.11
2019-03-27T00:38:41.659Z,98879.05
2019-03-27T00:41:12.205Z,98890.67
2019-03-27T00:43:42.649Z,98872.66
2019-03-27T00:46:13.303Z,98872.66
2019-03-27T00:48:43.793Z,98882.60
2019-03-27T00:51:14.141Z,98882.60
2019-03-27T00:53:44.565Z,98878.36
2019-03-27T00:56:15.351Z,98884.72
2019-03-27T00:58:45.935Z,98879.67
2019-03-27T01:01:16.877Z,98889.79
2019-03-27T01:03:47.661Z,98894.66
2019-03-27T01:06:18.193Z,98883.37
2019-03-27T01:08:49.879Z,98888.41
2019-03-27T01:11:20.420Z,98888.41
2019-03-27T01:13:50.785Z,98886.36
2019-03-27T01:16:21.261Z,98884.80
2019-03-27T01:18:51.753Z,98887.50
2019-03-27T01:21:22.565Z,98883.11
2019-03-27T01:23:53.040Z,98867.55
2019-03-27T01:26:23.629Z,98867.55
2019-03-27T01:28:54.025Z,98871.21
2019-03-27T01:31:24.609Z,98876.16
2019-03-27T01:33:55.211Z,98876.16
2019-03-27T01:36:25.853Z,98881.02
2019-03-27T01:38:56.999Z,98881.02
2019-03-27T01:41:27.463Z,98879.19
2019-03-27T01:43:57.904Z,98880.95
2019-03-27T01:46:28.509Z,98865.77
2019-03-27T01:48:59.066Z,98872.48
2019-03-27T01:51:30.063Z,98869.01
2019-03-27T01:54:00.691Z,98875.54
2019-03-27T01:56:31.232Z,98875.54
2019-03-27T01:59:02.320Z,98885.42
2019-03-27T02:01:33.019Z,98881.50
2019-03-27T02:04:03.651Z,98878.87
2019-03-27T02:06:34.116Z,98875.30
2019-03-27T02:09:05.272Z,98883.48
2019-03-27T02:11:36.336Z,98883.48
2019-03-27T02:14:06.965Z,98875.88
2019-03-27T02:16:37.625Z,98879.92
2019-03-27T02:19:08.473Z,98884.12
2019-03-27T02:21:39.030Z,98883.08
2019-03-27T02:24:09.517Z,98876.16
2019-03-27T02:26:39.993Z,98876.16
2019-03-27T02:29:10.519Z,98880.55
2019-03-27T02:31:41.245Z,98886.66
2019-03-27T02:34:11.883Z,98885.73
2019-03-27T02:36:42.381Z,98886.20
2019-03-27T02:39:16.351Z,98886.59
2019-03-27T02:41:47.046Z,98889.46
2019-03-27T02:44:18.141Z,98895.30
2019-03-27T02:46:48.611Z,98877.03
2019-03-27T02:49:19.071Z,98885.59
2019-03-27T02:51:49.567Z,98885.59
2019-03-27T02:54:19.985Z,98879.70
2019-03-27T02:56:50.618Z,98874.88
2019-03-27T02:59:21.344Z,98874.63
2019-03-27T03:01:52.002Z,98871.84
2019-03-27T03:04:22.630Z,98876.21
2019-03-27T03:06:53.062Z,98876.22
2019-03-27T03:09:23.594Z,98876.22
2019-03-27T03:11:53.948Z,98869.45
2019-03-27T03:14:24.117Z,98867.73
2019-03-27T03:16:54.958Z,98867.73
2019-03-27T03:19:25.266Z,98861.27
2019-03-27T03:21:55.919Z,98857.03
2019-03-27T03:24:26.415Z,98852.13
2019-03-27T03:26:56.844Z,98854.13
2019-03-27T03:29:27.214Z,98862.68
2019-03-27T03:31:57.670Z,98862.68
2019-03-27T03:34:28.689Z,98858.52
2019-03-27T03:36:59.141Z,98858.52
2019-03-27T03:39:29.501Z,98869.45
2019-03-27T03:42:00.622Z,98875.48
2019-03-27T03:44:30.989Z,98872.23
2019-03-27T03:47:01.263Z,98884.03
2019-03-27T03:49:31.689Z,98883.94
2019-03-27T03:52:01.893Z,98882.81
2019-03-27T03:54:32.729Z,98892.82
2019-03-27T03:57:03.053Z,98888.80
2019-03-27T03:59:33.424Z,98891.52
2019-03-27T04:02:04.920Z,98891.52
2019-03-27T04:04:35.047Z,98887.72
2019-03-27T04:07:05.250Z,98888.75
2019-03-27T04:09:36.135Z,98890.17
2019-03-27T04:12:06.843Z,98890.17
2019-03-27T04:14:37.159Z,98891.31
2019-03-27T04:17:17.066Z,98902.27
2019-03-27T04:19:39.352Z,98909.52
2019-03-27T04:22:10.016Z,98908.55
2019-03-27T04:24:40.546Z,98915.31
2019-03-27T04:27:10.669Z,98915.31
2019-03-27T04:29:41.138Z,98909.14
2019-03-27T04:32:11.547Z,98921.70
2019-03-27T04:34:41.835Z,98924.81
2019-03-27T04:37:12.121Z,98924.81
2019-03-27T04:39:42.295Z,98933.17
2019-03-27T04:42:13.140Z,98930.68
2019-03-27T04:44:43.464Z,98930.68
2019-03-27T04:47:14.030Z,98924.75
2019-03-27T04:49:45.012Z,98920.99
2019-03-27T04:52:18.362Z,98925.68
2019-03-27T04:54:48.721Z,98925.68
2019-03-27T04:57:20.010Z,98924.04
2019-03-27T04:59:50.966Z,98928.48
2019-03-27T05:02:21.432Z,98929.98
2019-03-27T05:04:52.131Z,98929.98
2019-03-27T05:07:23.217Z,98929.71
2019-03-27T05:09:53.438Z,98920.28
2019-03-27T05:12:23.661Z,98925.58
2019-03-27T05:14:53.934Z,98925.02
2019-03-27T05:17:24.199Z,98932.36
2019-03-27T05:19:54.581Z,98931.80
2019-03-27T05:22:27.972Z,98931.80
2019-03-27T05:24:58.265Z,98928.38
2019-03-27T05:27:28.733Z,98942.83
2019-03-27T05:29:58.930Z,98942.83
2019-03-27T05:32:29.371Z,98947.16
2019-03-27T05:35:00.450Z,98948.95
2019-03-27T05:37:31.013Z,98954.30
2019-03-27T05:40:01.307Z,98961.34
2019-03-27T05:42:31.685Z,98970.63
2019-03-27T05:45:02.138Z,98968.80
2019-03-27T05:47:32.388Z,98968.80
2019-03-27T05:50:02.655Z,98972.58
2019-03-27T05:52:32.965Z,98976.75
2019-03-27T05:55:03.289Z,98976.75
2019-03-27T05:57:33.938Z,98981.41
2019-03-27T06:00:04.539Z,98986.19
2019-03-27T06:02:38.696Z,98986.64
2019-03-27T06:05:11.019Z,98986.64
2019-03-27T06:07:43.679Z,98990.98
2019-03-27T06:10:16.331Z,98987.91
2019-03-27T06:12:46.363Z,98987.91
2019-03-27T06:15:16.620Z,98978.45
2019-03-27T06:17:46.937Z,98978.45
2019-03-27T06:20:17.897Z,98975.94
2019-03-27T06:22:48.252Z,98975.94
2019-03-27T06:25:19.474Z,98979.35
2019-03-27T06:27:49.951Z,98977.83
2019-03-27T06:30:20.521Z,98977.83
2019-03-27T06:32:50.931Z,98990.45
2019-03-27T06:35:21.930Z,98990.45
2019-03-27T06:37:52.614Z,98990.63
2019-03-27T06:40:27.068Z,98990.63
2019-03-27T06:42:57.363Z,99002.92
2019-03-27T06:45:28.195Z,99002.13
2019-03-27T06:47:58.389Z,99002.53
2019-03-27T06:50:28.469Z,99001.72
2019-03-27T06:53:01.533Z,99004.72
2019-03-27T06:55:43.851Z,99005.66
2019-03-27T06:58:14.292Z,99005.66
2019-03-27T07:00:45.125Z,99010.46
2019-03-27T07:03:15.652Z,99010.46
2019-03-27T07:05:45.947Z,99009.11
2019-03-27T07:08:16.452Z,99009.11
2019-03-27T07:10:46.709Z,99016.34
2019-03-27T07:13:18.333Z,99016.34
2019-03-27T07:15:57.512Z,99012.08
2019-03-27T07:19:27.636Z,99014.34
2019-03-27T07:21:58.145Z,99030.30
2019-03-27T07:24:28.387Z,99030.30
2019-03-27T07:26:58.976Z,99023.75
2019-03-27T07:29:29.175Z,99023.70
2019-03-27T07:32:00.054Z,99020.05
2019-03-27T07:34:30.642Z,99020.05
2019-03-27T07:37:07.323Z,99017.44
2019-03-27T07:39:37.892Z,99017.89
2019-03-27T07:42:08.436Z,99016.83
2019-03-27T07:44:38.914Z,99016.91
2019-03-27T07:47:10.881Z,99025.83
2019-03-27T07:49:41.700Z,99030.38
2019-03-27T07:52:14.239Z,99033.82
2019-03-27T07:54:44.890Z,99033.82
2019-03-27T07:57:15.815Z,99036.03
2019-03-27T07:59:46.167Z,99033.39
2019-03-27T08:02:16.591Z,99046.48
2019-03-27T08:04:47.184Z,99046.48
2019-03-27T08:07:26.792Z,99040.26
2019-03-27T08:09:51.144Z,99038.78
2019-03-27T08:12:21.785Z,99039.91
2019-03-27T08:14:52.113Z,99041.17
2019-03-27T08:17:22.410Z,99041.17
2019-03-27T08:19:52.895Z,99046.84
2019-03-27T08:22:24.397Z,99045.80
2019-03-27T08:24:55.134Z,99043.77
2019-03-27T08:27:26.574Z,99043.77
2019-03-27T08:29:57.743Z,99050.42
2019-03-27T08:32:27.998Z,99048.25
2019-03-27T08:35:00.699Z,99048.25
2019-03-27T08:37:31.090Z,99055.52
2019-03-27T08:40:01.397Z,99048.87
2019-03-27T08:42:32.229Z,99053.77
2019-03-27T08:45:06.362Z,99048.97
2019-03-27T08:47:38.910Z,99064.06
2019-03-27T08:50:10.452Z,99058.83
2019-03-27T08:52:43.681Z,99058.84
2019-03-27T08:55:14.885Z,99062.34
2019-03-27T08:57:45.472Z,99075.20
2019-03-27T09:00:16.425Z,99067.54
2019-03-27T09:02:46.764Z,99065.98
2019-03-27T09:05:17.259Z,99065.98
2019-03-27T09:07:47.981Z,99065.30
2019-03-27T09:10:18.532Z,99062.78
2019-03-27T09:12:50.849Z,99062.78
2019-03-27T09:15:26.314Z,99064.20
2019-03-27T09:17:54.060Z,99065.98
2019-03-27T09:20:24.387Z,99065.98
2019-03-27T09:22:55.096Z,99064.69
2019-03-27T09:25:26.005Z,99067.51
2019-03-27T09:27:56.936Z,99067.51
2019-03-27T09:30:27.594Z,99063.56
2019-03-27T09:32:58.165Z,99060.64
2019-03-27T09:35:28.563Z,99062.09
2019-03-27T09:37:58.952Z,99056.95
2019-03-27T09:40:29.333Z,99058.38
2019-03-27T09:43:24.720Z,99064.70
2019-03-27T09:45:55.114Z,99064.20
2019-03-27T09:48:26.398Z,99069.59
2019-03-27T09:50:57.190Z,99065.46
2019-03-27T09:53:27.313Z,99060.17
2019-03-27T09:55:57.622Z,99067.70
2019-03-27T09:58:28.480Z,99066.59
2019-03-27T10:01:00.671Z,99070.08
2019-03-27T10:03:31.228Z,99069.88
2019-03-27T10:06:01.700Z,99063.86
2019-03-27T10:08:32.167Z,99067.32
2019-03-27T10:11:03.184Z,99067.32
2019-03-27T10:13:33.693Z,99067.72
2019-03-27T10:16:04.586Z,99067.72
2019-03-27T10:18:34.974Z,99068.67
2019-03-27T10:21:05.130Z,99068.80
2019-03-27T10:23:35.165Z,99068.27
2019-03-27T10:26:05.639Z,99085.11
2019-03-27T10:28:36.005Z,99080.64
2019-03-27T10:31:08.027Z,99074.05
2019-03-27T10:33:39.557Z,99074.05
2019-03-27T10:36:10.504Z,99072.77
2019-03-27T10:38:41.870Z,99076.02
2019-03-27T10:41:16.474Z,99073.61
2019-03-27T10:43:48.133Z,99080.05
2019-03-27T10:46:18.214Z,99078.27
2019-03-27T10:48:52.882Z,99078.27
2019-03-27T10:51:20.788Z,99080.74
2019-03-27T10:53:52.188Z,99080.74
2019-03-27T10:56:22.675Z,99076.22
2019-03-27T10:58:53.128Z,99073.37
2019-03-27T11:01:23.333Z,99075.77
2019-03-27T11:03:53.785Z,99075.77
2019-03-27T11:06:25.855Z,99069.41
2019-03-27T11:08:56.268Z,99079.16
2019-03-27T11:11:29.771Z,99077.69
2019-03-27T11:14:00.301Z,99077.69
2019-03-27T11:16:30.797Z,99070.52
2019-03-27T11:19:01.802Z,99072.84
2019-03-27T11:21:34.393Z,99072.84
2019-03-27T11:24:04.665Z,99075.77
2019-03-27T11:26:34.871Z,99075.77
2019-03-27T11:29:05.126Z,99074.44
2019-03-27T11:31:35.213Z,99077.52
2019-03-27T11:34:05.655Z,99072.96
2019-03-27T11:36:36.150Z,99081.73
2019-03-27T11:39:13.328Z,99070.38
2019-03-27T11:41:46.260Z,99070.38
2019-03-27T11:44:16.614Z,99073.89
2019-03-27T11:46:47.155Z,99067.45
2019-03-27T11:49:17.247Z,99068.09
2019-03-27T11:51:48.156Z,99068.09
2019-03-27T11:54:18.303Z,99058.67
2019-03-27T11:56:52.558Z,99054.66
2019-03-27T11:59:23.886Z,99051.31
2019-03-27T12:02:02.027Z,99045.54
2019-03-27T12:04:37.302Z,99046.44
2019-03-27T12:07:07.653Z,99043.24
2019-03-27T12:09:38.373Z,99041.33
2019-03-27T12:12:09.234Z,99037.70
2019-03-27T12:14:39.693Z,99043.41
2019-03-27T12:17:10.095Z,99043.41
2019-03-27T12:19:40.566Z,99043.66
2019-03-27T12:22:10.770Z,99043.66
2019-03-27T12:24:42.844Z,99049.77
2019-03-27T12:27:12.994Z,99049.77
2019-03-27T12:29:43.385Z,99055.05
2019-03-27T12:32:16.388Z,99044.20
2019-03-27T12:35:07.782Z,99041.75
2019-03-27T12:37:41.280Z,99041.75
2019-03-27T12:40:12.893Z,99043.34
2019-03-27T12:42:43.158Z,99040.52
2019-03-27T12:45:13.368Z,99034.13
2019-03-27T12:47:43.806Z,99035.19
2019-03-27T12:50:15.908Z,99028.12
2019-03-27T12:52:46.438Z,99034.84
2019-03-27T12:55:17.198Z,99032.67
2019-03-27T12:57:47.418Z,99032.67
2019-03-27T13:00:17.667Z,99030.98
2019-03-27T13:02:48.671Z,99024.05
2019-03-27T13:05:19.208Z,99020.12
2019-03-27T13:07:50.559Z,99028.05
2019-03-27T13:10:24.996Z,99028.05
2019-03-27T13:12:55.962Z,99028.77
2019-03-27T13:15:27.146Z,99026.72
2019-03-27T13:18:01.062Z,99027.42
2019-03-27T13:20:31.222Z,99024.47
2019-03-27T13:23:01.416Z,99023.43
2019-03-27T13:25:31.979Z,99026.73
2019-03-27T13:28:02.595Z,99034.23
2019-03-27T13:30:32.797Z,99034.31
2019-03-27T13:33:03.742Z,99023.01
2019-03-27T13:35:33.857Z,99023.01
2019-03-27T13:38:03.979Z,99025.02
2019-03-27T13:40:34.724Z,99024.86
2019-03-27T13:43:05.236Z,99026.53
2019-03-27T13:45:36.565Z,99030.33
2019-03-27T13:48:06.784Z,99020.02
2019-03-27T13:50:40.235Z,99025.25
2019-03-27T13:53:11.047Z,99033.31
2019-03-27T13:55:41.339Z,99026.37
2019-03-27T13:58:11.498Z,99026.37
2019-03-27T14:00:42.014Z,99026.84
2019-03-27T14:03:13.458Z,99021.73
2019-03-27T14:05:43.666Z,99021.73
2019-03-27T14:08:14.533Z,99028.98
2019-03-27T14:10:44.705Z,99028.38
2019-03-27T14:13:16.703Z,99031.55
2019-03-27T14:15:47.104Z,99031.55
2019-03-27T14:18:19.074Z,99029.92
2019-03-27T14:20:49.553Z,99034.52
2019-03-27T14:23:20.241Z,99033.25
2019-03-27T14:25:50.783Z,99033.25
2019-03-27T14:28:21.733Z,99035.89
2019-03-27T14:30:59.116Z,99029.21
2019-03-27T14:33:29.292Z,99020.81
2019-03-27T14:36:00.108Z,99020.81
2019-03-27T14:38:40.572Z,99021.34
2019-03-27T14:41:11.268Z,99021.60
2019-03-27T14:43:43.906Z,99021.60
2019-03-27T14:46:15.325Z,99017.56
2019-03-27T14:48:45.709Z,99016.02
2019-03-27T14:51:16.286Z,99013.97
2019-03-27T14:53:46.672Z,99014.20
2019-03-27T14:56:19.562Z,99014.20
2019-03-27T14:58:53.779Z,99013.15
2019-03-27T15:01:24.180Z,99016.59
2019-03-27T15:03:57.515Z,99016.94
2019-03-27T15:06:28.211Z,99016.94
2019-03-27T15:09:07.103Z,99024.00
2019-03-27T15:11:40.360Z,99033.08
2019-03-27T15:14:14.027Z,99033.08
2019-03-27T15:16:45.243Z,99030.81
2019-03-27T15:19:18.225Z,99025.38
2019-03-27T15:21:51.899Z,99021.98
2019-03-27T15:24:22.094Z,99021.98
2019-03-27T15:26:52.295Z,99025.73
2019-03-27T15:29:25.207Z,99025.73
2019-03-27T15:31:55.272Z,99024.85
2019-03-27T15:34:25.631Z,99033.45
2019-03-27T15:36:56.259Z,99028.94
2019-03-27T15:39:26.358Z,99028.86
2019-03-27T15:41:57.207Z,99028.86
2019-03-27T15:44:28.355Z,99015.75
2019-03-27T15:46:58.459Z,99024.52
2019-03-27T15:49:30.778Z,99024.52
2019-03-27T15:52:01.278Z,99016.94
2019-03-27T15:54:31.757Z,99009.02
2019-03-27T15:57:06.160Z,99014.52
2019-03-27T15:59:35.101Z,99011.90
2019-03-27T16:02:07.357Z,99014.97
2019-03-27T16:04:38.921Z,99014.97
2019-03-27T16:07:11.453Z,99024.67
2019-03-27T16:09:42.252Z,99025.46
2019-03-27T16:12:14.092Z,99025.46
2019-03-27T16:14:45.185Z,99026.53
2019-03-27T16:17:19.716Z,99019.52
2019-03-27T16:19:50.149Z,99019.52
2019-03-27T16:22:23.678Z,99020.88
2019-03-27T16:24:59.538Z,99020.02
2019-03-27T16:27:37.733Z,99024.70
2019-03-27T16:30:08.485Z,99024.70
2019-03-27T16:32:41.126Z,99020.56
2019-03-27T16:35:13.119Z,99020.56
2019-03-27T16:37:43.503Z,99031.20
2019-03-27T16:40:13.915Z,99026.61
2019-03-27T16:42:44.554Z,99030.23
2019-03-27T16:45:15.371Z,99029.16
2019-03-27T16:47:45.628Z,99033.86
2019-03-27T16:50:36.387Z,99033.86
2019-03-27T16:53:07.123Z,99033.00
2019-03-27T16:55:39.146Z,99031.53
2019-03-27T16:58:10.006Z,99037.83
2019-03-27T17:00:42.437Z,99038.70
2019-03-27T17:03:14.448Z,99046.86
2019-03-27T17:05:53.969Z,99052.81
2019-03-27T17:08:17.730Z,99052.25
2019-03-27T17:10:48.656Z,99051.48
2019-03-27T17:13:19.090Z,99049.02
2019-03-27T17:15:53.732Z,99055.55
2019-03-27T17:18:29.543Z,99054.89
2019-03-27T17:21:05.507Z,99059.51
2019-03-27T17:23:40.040Z,99059.51
2019-03-27T17:26:10.515Z,99058.23
2019-03-27T17:28:43.903Z,99066.70
2019-03-27T17:31:13.971Z,99070.83
2019-03-27T17:33:44.297Z,99066.93
2019-03-27T17:36:14.755Z,99062.38
2019-03-27T17:38:45.523Z,99062.53
2019-03-27T17:41:15.790Z,99067.88
2019-03-27T17:43:46.746Z,99073.76
2019-03-27T17:46:19.350Z,99071.67
2019-03-27T17:48:50.025Z,99071.67
2019-03-27T17:51:20.149Z,99075.54
2019-03-27T17:53:50.297Z,99071.28
2019-03-27T17:56:23.670Z,99072.36
2019-03-27T17:58:57.440Z,99072.67
2019-03-27T18:01:33.651Z,99071.69
2019-03-27T18:04:04.304Z,99071.69
2019-03-27T18:06:35.050Z,99071.00
2019-03-27T18:09:07.104Z,99067.53
2019-03-27T18:11:37.996Z,99068.16
2019-03-27T18:14:10.469Z,99067.33
2019-03-27T18:16:40.800Z,99067.33
2019-03-27T18:19:11.749Z,99066.94
2019-03-27T18:21:42.151Z,99070.61
2019-03-27T18:24:15.076Z,99070.84
2019-03-27T18:26:45.728Z,99070.84
2019-03-27T18:29:18.055Z,99078.08
2019-03-27T18:31:48.967Z,99075.12
2019-03-27T18:34:25.284Z,99074.86
2019-03-27T18:36:55.926Z,99074.86
2019-03-27T18:39:26.354Z,99076.46
2019-03-27T18:41:57.304Z,99081.68
2019-03-27T18:44:28.581Z,99080.42
2019-03-27T18:47:03.401Z,99080.42
2019-03-27T18:49:36.383Z,99093.75
2019-03-27T18:52:07.295Z,99093.75
2019-03-27T18:54:41.835Z,99094.02
2019-03-27T18:57:12.459Z,99094.02
2019-03-27T18:59:48.258Z,99094.91
2019-03-27T19:02:20.093Z,99101.16
2019-03-27T19:04:50.643Z,99108.63
2019-03-27T19:07:21.287Z,99108.63
2019-03-27T19:09:52.086Z,99118.73
2019-03-27T19:12:22.334Z,99124.55
2019-03-27T19:14:52.645Z,99124.09
2019-03-27T19:17:22.983Z,99119.58
2019-03-27T19:19:53.502Z,99126.46
2019-03-27T19:22:24.026Z,99128.57
2019-03-27T19:24:56.482Z,99126.95
2019-03-27T19:27:26.974Z,99126.95
2019-03-27T19:29:58.395Z,99130.94
2019-03-27T19:32:28.745Z,99134.46
2019-03-27T19:35:02.225Z,99129.21
2019-03-27T19:37:33.047Z,99129.21
2019-03-27T19:40:05.785Z,99132.83
2019-03-27T19:42:36.730Z,99135.57
2019-03-27T19:45:07.852Z,99136.73
2019-03-27T19:47:38.489Z,99136.41
2019-03-27T19:50:08.889Z,99132.45
2019-03-27T19:52:39.835Z,99132.45
2019-03-27T19:55:10.915Z,99138.51
2019-03-27T19:57:44.508Z,99138.51
2019-03-27T20:00:15.226Z,99137.30
2019-03-27T20:02:45.422Z,99129.25
2019-03-27T20:05:15.977Z,99132.69
2019-03-27T20:07:46.424Z,99132.69
2019-03-27T20:10:17.658Z,99128.69
2019-03-27T20:12:47.906Z,99131.46
2019-03-27T20:15:18.425Z,99131.46
2019-03-27T20:17:49.132Z,99133.79
2019-03-27T20:20:19.841Z,99136.86
2019-03-27T20:22:52.658Z,99140.37
2019-03-27T20:25:22.832Z,99134.70
2019-03-27T20:27:54.106Z,99134.70
2019-03-27T20:30:27.021Z,99135.05
2019-03-27T20:32:57.764Z,99140.16
2019-03-27T20:35:28.003Z,99139.43
2019-03-27T20:38:04.618Z,99141.68
2019-03-27T20:40:38.179Z,99140.42
2019-03-27T20:43:11.666Z,99143.52
2019-03-27T20:45:42.365Z,99140.42
2019-03-27T20:48:12.562Z,99140.42
2019-03-27T20:50:45.457Z,99148.63
2019-03-27T20:53:16.090Z,99148.63
2019-03-27T20:55:46.508Z,99144.83
2019-03-27T20:58:16.710Z,99144.06
2019-03-27T21:00:47.223Z,99146.01
2019-03-27T21:03:17.367Z,99148.41
2019-03-27T21:05:54.787Z,99148.41
2019-03-27T21:08:28.579Z,99145.69
2019-03-27T21:10:59.394Z,99141.95
2019-03-27T21:13:31.031Z,99138.98
2019-03-27T21:16:01.501Z,99142.67
2019-03-27T21:18:34.470Z,99142.67
2019-03-27T21:21:07.392Z,99139.30
2019-03-27T21:23:38.307Z,99139.30
2019-03-27T21:26:09.805Z,99140.45
2019-03-27T21:28:53.840Z,99145.21
2019-03-27T21:31:24.799Z,99144.80
2019-03-27T21:33:57.893Z,99144.80
2019-03-27T21:36:34.248Z,99147.82
2019-03-27T21:39:06.582Z,99150.08
2019-03-27T21:41:38.100Z,99154.41
2019-03-27T21:44:09.082Z,99152.22
2019-03-27T21:46:39.348Z,99152.22
2019-03-27T21:49:09.597Z,99148.22
2019-03-27T21:51:40.175Z,99146.09
2019-03-27T21:54:10.822Z,99151.84
2019-03-27T21:56:41.156Z,99149.64
2019-03-27T21:59:13.954Z,99149.64
2019-03-27T22:01:44.669Z,99153.66
2019-03-27T22:04:15.141Z,99154.20
2019-03-27T22:06:45.551Z,99155.69
2019-03-27T22:09:16.015Z,99153.02
2019-03-27T22:11:46.376Z,99154.03
2019-03-27T22:14:16.808Z,99154.03
2019-03-27T22:16:48.333Z,99152.08
2019-03-27T22:19:18.958Z,99154.20
2019-03-27T22:21:49.216Z,99158.83
2019-03-27T22:24:19.516Z,99158.21
2019-03-27T22:26:50.007Z,99165.50
2019-03-27T22:29:20.465Z,99156.70
2019-03-27T22:31:51.443Z,99156.70
2019-03-27T22:34:23.008Z,99161.83
2019-03-27T22:36:56.238Z,99158.61
2019-03-27T22:39:26.206Z,99160.48
2019-03-27T22:41:56.558Z,99160.48
2019-03-27T22:44:27.465Z,99161.42
2019-03-27T22:46:57.658Z,99162.22
2019-03-27T22:49:28.305Z,99170.39
2019-03-27T22:51:58.769Z,99169.66
2019-03-27T22:54:29.220Z,99170.04
2019-03-27T22:57:00.584Z,99170.04
2019-03-27T22:59:30.836Z,99168.05
2019-03-27T23:02:01.462Z,99170.79
2019-03-27T23:04:32.363Z,99170.79
2019-03-27T23:07:02.786Z,99174.44
2019-03-27T23:09:33.236Z,99173.03
2019-03-27T23:12:03.885Z,99177.69
2019-03-27T23:14:34.190Z,99177.69
2019-03-27T23:17:04.995Z,99176.57
2019-03-27T23:19:35.323Z,99177.36
2019-03-27T23:24:46.882Z,99174.77
2019-03-27T23:27:17.531Z,99181.27
2019-03-27T23:29:47.886Z,99178.52
2019-03-27T23:32:18.120Z,99175.46
2019-03-27T23:34:48.947Z,99175.46
2019-03-27T23:37:19.247Z,99184.59
2019-03-27T23:39:49.485Z,99183.31
2019-03-27T23:42:20.125Z,99189.51
2019-03-27T23:44:50.445Z,99181.83
2019-03-27T23:47:20.471Z,99181.83
2019-03-27T23:49:51.317Z,99176.75
2019-03-27T23:52:21.460Z,99172.25
2019-03-27T23:54:52.259Z,99176.43
2019-03-27T23:57:22.472Z,99176.43
2019-03-27T23:59:52.658Z,99179.17
